createdAt,value
2019-03-22T00:00:35.546Z,51.30
2019-03-22T00:01:35.483Z,49.30
2019-03-22T00:02:35.700Z,50.10
2019-03-22T00:03:35.680Z,51.30
2019-03-22T00:04:35.473Z,49.20
2019-03-22T00:05:35.471Z,46.90
2019-03-22T00:06:35.504Z,45.90
2019-03-22T00:07:35.434Z,48.40
2019-03-22T00:08:35.446Z,45.40
2019-03-22T00:09:35.395Z,48.80
2019-03-22T00:10:35.508Z,45.20
2019-03-22T00:12:36.607Z,42.10
2019-03-22T00:13:35.356Z,44.00
2019-03-22T00:14:36.942Z,42.10
2019-03-22T00:15:35.362Z,44.90
2019-03-22T00:16:35.338Z,43.70
2019-03-22T00:17:35.358Z,45.00
2019-03-22T00:18:35.297Z,42.10
2019-03-22T00:19:35.291Z,42.20
2019-03-22T00:20:35.303Z,43.40
2019-03-22T00:21:35.277Z,44.80
2019-03-22T00:22:35.284Z,39.60
2019-03-22T00:23:35.250Z,43.80
2019-03-22T00:24:35.234Z,40.90
2019-03-22T00:25:35.446Z,40.90
2019-03-22T00:26:35.272Z,43.20
2019-03-22T00:28:36.406Z,41.30
2019-03-22T00:29:35.398Z,40.10
2019-03-22T00:30:35.479Z,41.30
2019-03-22T00:31:35.302Z,42.70
2019-03-22T00:32:35.156Z,43.90
2019-03-22T00:34:36.229Z,40.90
2019-03-22T00:35:35.188Z,46.10
2019-03-22T00:36:37.327Z,39.90
2019-03-22T00:37:37.260Z,47.30
2019-03-22T00:38:35.134Z,39.10
2019-03-22T00:39:35.172Z,42.10
2019-03-22T00:40:35.056Z,45.50
2019-03-22T00:41:35.240Z,44.00
2019-03-22T00:42:37.160Z,45.40
2019-03-22T00:43:35.121Z,44.50
2019-03-22T00:44:35.072Z,47.30
2019-03-22T00:46:36.734Z,52.70
2019-03-22T00:47:35.067Z,44.70
2019-03-22T00:48:34.978Z,47.70
2019-03-22T00:49:34.998Z,49.80
2019-03-22T00:50:34.970Z,46.20
2019-03-22T00:51:37.118Z,49.60
2019-03-22T00:52:35.002Z,45.80
2019-03-22T00:53:37.035Z,52.60
2019-03-22T00:54:34.917Z,44.30
2019-03-22T00:55:35.000Z,43.40
2019-03-22T00:56:35.107Z,42.40
2019-03-22T00:57:38.998Z,44.90
2019-03-22T00:58:38.986Z,47.60
2019-03-22T01:00:36.052Z,44.00
2019-03-22T01:01:34.866Z,44.50
2019-03-22T01:02:34.841Z,48.10
2019-03-22T01:03:34.824Z,41.20
2019-03-22T01:04:34.883Z,45.00
2019-03-22T01:05:34.859Z,42.70
2019-03-22T01:06:34.900Z,42.70
2019-03-22T01:07:36.860Z,46.60
2019-03-22T01:08:36.841Z,43.70
2019-03-22T01:09:34.816Z,42.60
2019-03-22T01:10:34.793Z,42.00
2019-03-22T01:11:36.436Z,42.60
2019-03-22T01:12:34.722Z,41.60
2019-03-22T01:13:34.769Z,44.40
2019-03-22T01:14:34.724Z,46.30
2019-03-22T01:15:34.756Z,42.50
2019-03-22T01:16:34.869Z,44.10
2019-03-22T01:18:35.832Z,41.60
2019-03-22T01:19:34.748Z,43.50
2019-03-22T01:20:34.695Z,41.10
2019-03-22T01:21:34.687Z,41.80
2019-03-22T01:25:45.645Z,39.60
2019-03-22T01:29:05.846Z,42.00
2019-03-22T01:30:05.823Z,44.30
2019-03-22T01:32:07.042Z,42.80
2019-03-22T01:47:48.316Z,48.30
2019-03-22T01:48:47.252Z,46.10
2019-03-22T01:49:47.227Z,43.30
2019-03-22T01:50:47.194Z,45.00
2019-03-22T01:51:47.161Z,43.70
2019-03-22T01:52:47.163Z,43.70
2019-03-22T01:54:46.950Z,48.10
2019-03-22T01:55:46.934Z,45.90
2019-03-22T01:56:46.946Z,42.50
2019-03-22T01:57:53.153Z,46.00
2019-03-22T01:58:47.933Z,47.90
2019-03-22T01:59:55.816Z,45.50
2019-03-22T02:00:46.892Z,45.20
2019-03-22T02:01:46.868Z,45.60
2019-03-22T02:02:46.881Z,46.10
2019-03-22T02:03:46.852Z,45.10
2019-03-22T02:04:46.844Z,43.30
2019-03-22T02:05:46.845Z,43.80
2019-03-22T02:06:46.815Z,43.90
2019-03-22T02:07:46.810Z,42.10
2019-03-22T02:08:46.882Z,44.80
2019-03-22T02:09:46.822Z,44.20
2019-03-22T02:10:46.781Z,42.60
2019-03-22T02:11:46.777Z,43.60
2019-03-22T02:12:46.760Z,44.50
2019-03-22T02:13:46.813Z,47.90
2019-03-22T02:14:46.745Z,46.80
2019-03-22T02:15:46.730Z,46.90
2019-03-22T02:16:46.707Z,46.00
2019-03-22T02:17:46.703Z,45.30
2019-03-22T02:18:46.740Z,44.00
2019-03-22T02:19:46.690Z,46.50
2019-03-22T02:20:46.665Z,46.70
2019-03-22T02:21:46.657Z,45.60
2019-03-22T02:22:46.647Z,46.20
2019-03-22T02:23:46.652Z,47.40
2019-03-22T02:24:46.620Z,48.20
2019-03-22T02:25:46.611Z,49.70
2019-03-22T02:26:46.606Z,47.80
2019-03-22T02:27:46.602Z,49.60
2019-03-22T02:28:46.606Z,49.10
2019-03-22T02:29:46.568Z,49.70
2019-03-22T02:30:46.557Z,47.80
2019-03-22T02:31:46.550Z,50.20
2019-03-22T02:32:46.544Z,51.40
2019-03-22T02:33:46.557Z,52.20
2019-03-22T02:34:46.528Z,53.10
2019-03-22T02:35:46.501Z,48.70
2019-03-22T02:36:46.526Z,51.30
2019-03-22T02:37:46.488Z,51.60
2019-03-22T02:38:46.495Z,50.90
2019-03-22T02:39:46.610Z,49.50
2019-03-22T02:40:46.445Z,49.80
2019-03-22T02:41:46.439Z,51.90
2019-03-22T02:42:46.483Z,50.60
2019-03-22T02:43:46.491Z,52.00
2019-03-22T02:44:46.474Z,53.50
2019-03-22T02:45:46.396Z,50.60
2019-03-22T02:46:46.401Z,50.30
2019-03-22T02:47:46.387Z,50.20
2019-03-22T02:48:46.418Z,48.70
2019-03-22T02:49:46.358Z,50.10
2019-03-22T02:50:46.341Z,52.00
2019-03-22T02:51:46.365Z,51.50
2019-03-22T02:52:46.374Z,53.90
2019-03-22T02:53:46.315Z,48.20
2019-03-22T02:54:46.301Z,52.50
2019-03-22T02:55:46.322Z,52.50
2019-03-22T02:56:46.310Z,52.80
2019-03-22T02:57:46.277Z,52.50
2019-03-22T02:58:46.350Z,50.60
2019-03-22T02:59:46.276Z,51.20
2019-03-22T03:00:46.229Z,54.70
2019-03-22T03:01:46.230Z,54.30
2019-03-22T03:02:46.215Z,50.50
2019-03-22T03:03:46.219Z,51.80
2019-03-22T03:04:46.188Z,53.20
2019-03-22T03:05:46.183Z,48.70
2019-03-22T03:06:46.173Z,50.30
2019-03-22T03:07:46.251Z,51.30
2019-03-22T03:08:46.176Z,54.00
2019-03-22T03:09:46.143Z,50.60
2019-03-22T03:10:46.126Z,52.50
2019-03-22T03:11:46.114Z,53.20
2019-03-22T03:12:46.126Z,49.80
2019-03-22T03:13:46.126Z,49.10
2019-03-22T03:14:46.080Z,51.40
2019-03-22T03:15:46.077Z,50.80
2019-03-22T03:16:46.136Z,49.90
2019-03-22T03:17:46.062Z,52.10
2019-03-22T03:18:46.040Z,50.00
2019-03-22T03:19:46.058Z,51.20
2019-03-22T03:20:46.022Z,47.30
2019-03-22T03:21:46.006Z,50.10
2019-03-22T03:22:45.999Z,52.10
2019-03-22T03:23:45.979Z,50.40
2019-03-22T03:24:45.987Z,51.70
2019-03-22T03:25:45.960Z,53.10
2019-03-22T03:26:45.951Z,51.30
2019-03-22T03:27:45.944Z,54.20
2019-03-22T03:28:45.928Z,50.70
2019-03-22T03:29:45.932Z,50.60
2019-03-22T03:30:45.924Z,50.60
2019-03-22T03:31:45.892Z,50.80
2019-03-22T03:32:45.892Z,48.80
2019-03-22T03:33:45.902Z,54.10
2019-03-22T03:34:45.894Z,54.40
2019-03-22T03:35:45.865Z,51.70
2019-03-22T03:36:45.847Z,52.20
2019-03-22T03:37:45.831Z,50.40
2019-03-22T03:38:45.838Z,49.60
2019-03-22T03:39:45.837Z,52.00
2019-03-22T03:40:45.798Z,47.00
2019-03-22T03:41:45.815Z,51.00
2019-03-22T03:42:45.804Z,51.10
2019-03-22T03:43:45.768Z,53.30
2019-03-22T03:44:45.790Z,54.80
2019-03-22T03:45:45.742Z,51.70
2019-03-22T03:46:45.728Z,49.60
2019-03-22T03:47:45.718Z,51.00
2019-03-22T03:48:45.710Z,49.60
2019-03-22T03:49:45.716Z,52.80
2019-03-22T03:50:45.691Z,52.80
2019-03-22T03:51:45.674Z,53.20
2019-03-22T03:52:45.663Z,52.00
2019-03-22T03:53:45.661Z,50.50
2019-03-22T03:54:45.682Z,50.40
2019-03-22T03:55:45.660Z,50.30
2019-03-22T03:56:45.642Z,53.60
2019-03-22T03:57:45.609Z,51.60
2019-03-22T03:58:52.306Z,49.90
2019-03-22T03:59:46.633Z,53.70
2019-03-22T04:00:45.582Z,51.50
2019-03-22T04:01:45.573Z,54.20
2019-03-22T04:02:45.590Z,54.30
2019-03-22T04:03:45.549Z,50.50
2019-03-22T04:04:45.581Z,50.10
2019-03-22T04:05:45.524Z,55.90
2019-03-22T04:06:45.525Z,54.60
2019-03-22T04:07:45.513Z,52.60
2019-03-22T04:08:45.531Z,55.40
2019-03-22T04:09:45.497Z,53.50
2019-03-22T04:10:45.506Z,53.90
2019-03-22T04:11:45.460Z,52.30
2019-03-22T04:12:45.450Z,51.00
2019-03-22T04:13:45.456Z,52.60
2019-03-22T04:14:46.344Z,54.20
2019-03-22T04:15:45.523Z,54.60
2019-03-22T04:16:45.434Z,52.90
2019-03-22T04:17:45.393Z,52.60
2019-03-22T04:18:45.388Z,55.20
2019-03-22T04:19:45.434Z,53.40
2019-03-22T04:20:45.367Z,54.80
2019-03-22T04:21:45.372Z,51.80
2019-03-22T04:22:45.377Z,51.80
2019-03-22T04:23:45.334Z,51.90
2019-03-22T04:24:45.352Z,54.70
2019-03-22T04:25:45.315Z,52.30
2019-03-22T04:26:45.307Z,51.90
2019-03-22T04:27:45.285Z,54.10
2019-03-22T04:28:45.292Z,50.60
2019-03-22T04:29:45.362Z,53.50
2019-03-22T04:30:45.272Z,56.50
2019-03-22T04:31:45.283Z,56.20
2019-03-22T04:32:45.234Z,51.70
2019-03-22T04:33:45.231Z,54.60
2019-03-22T04:34:45.262Z,57.20
2019-03-22T04:35:45.221Z,53.90
2019-03-22T04:36:45.185Z,57.10
2019-03-22T04:37:45.181Z,52.80
2019-03-22T04:38:45.178Z,54.20
2019-03-22T04:39:45.206Z,51.70
2019-03-22T04:40:45.188Z,52.90
2019-03-22T04:41:45.137Z,52.70
2019-03-22T04:42:45.131Z,52.70
2019-03-22T04:43:45.130Z,53.40
2019-03-22T04:44:45.099Z,54.50
2019-03-22T04:45:45.119Z,53.50
2019-03-22T04:46:45.081Z,53.00
2019-03-22T04:47:46.127Z,54.00
2019-03-22T04:48:45.069Z,55.50
2019-03-22T04:49:45.063Z,57.00
2019-03-22T04:50:45.065Z,52.50
2019-03-22T04:51:45.059Z,55.50
2019-03-22T04:52:45.017Z,52.40
2019-03-22T04:53:45.037Z,52.60
2019-03-22T04:54:44.993Z,54.30
2019-03-22T04:55:45.007Z,52.20
2019-03-22T04:56:44.973Z,50.80
2019-03-22T04:57:44.955Z,55.80
2019-03-22T04:58:46.798Z,53.20
2019-03-22T04:59:44.940Z,54.90
2019-03-22T05:00:44.947Z,56.20
2019-03-22T05:01:44.941Z,56.50
2019-03-22T05:02:44.918Z,54.90
2019-03-22T05:03:44.899Z,54.00
2019-03-22T05:04:44.885Z,58.30
2019-03-22T05:05:44.894Z,53.40
2019-03-22T05:06:44.875Z,51.80
2019-03-22T05:07:53.882Z,56.80
2019-03-22T05:08:44.853Z,55.60
2019-03-22T05:09:44.831Z,56.80
2019-03-22T05:10:44.837Z,55.70
2019-03-22T05:11:44.809Z,54.70
2019-03-22T05:12:44.830Z,54.60
2019-03-22T05:13:44.787Z,56.50
2019-03-22T05:14:44.774Z,56.60
2019-03-22T05:15:44.787Z,58.70
2019-03-22T05:16:44.775Z,57.40
2019-03-22T05:17:44.817Z,59.40
2019-03-22T05:18:44.735Z,54.60
2019-03-22T05:19:44.721Z,57.10
2019-03-22T05:20:44.765Z,55.70
2019-03-22T05:21:44.696Z,57.00
2019-03-22T05:22:44.699Z,56.80
2019-03-22T05:23:44.680Z,56.90
2019-03-22T05:24:44.683Z,52.90
2019-03-22T05:25:44.663Z,53.50
2019-03-22T05:26:44.680Z,53.50
2019-03-22T05:27:44.643Z,57.20
2019-03-22T05:28:44.622Z,58.50
2019-03-22T05:29:44.625Z,57.80
2019-03-22T05:30:44.607Z,59.90
2019-03-22T05:31:44.642Z,57.90
2019-03-22T05:32:44.579Z,56.80
2019-03-22T05:33:44.625Z,55.30
2019-03-22T05:34:44.559Z,57.10
2019-03-22T05:35:44.556Z,55.80
2019-03-22T05:36:44.588Z,57.90
2019-03-22T05:37:44.523Z,58.20
2019-03-22T05:38:44.514Z,60.20
2019-03-22T05:39:44.511Z,64.90
2019-03-22T05:40:44.504Z,62.10
2019-03-22T05:41:44.560Z,58.70
2019-03-22T05:42:44.474Z,59.90
2019-03-22T05:43:44.463Z,55.80
2019-03-22T05:44:44.462Z,52.60
2019-03-22T05:45:44.453Z,60.60
2019-03-22T05:46:44.443Z,55.30
2019-03-22T05:47:44.421Z,54.30
2019-03-22T05:48:44.408Z,54.40
2019-03-22T05:49:44.398Z,60.10
2019-03-22T05:50:44.395Z,55.70
2019-03-22T05:51:44.408Z,55.10
2019-03-22T05:52:44.368Z,56.10
2019-03-22T05:53:44.357Z,56.30
2019-03-22T05:54:44.349Z,53.60
2019-03-22T05:55:44.335Z,54.80
2019-03-22T05:56:44.347Z,54.50
2019-03-22T05:57:44.309Z,54.80
2019-03-22T05:58:44.313Z,54.50
2019-03-22T05:59:44.294Z,57.00
2019-03-22T06:00:44.272Z,59.20
2019-03-22T06:01:45.449Z,62.30
2019-03-22T06:02:44.268Z,67.60
2019-03-22T06:03:44.245Z,62.60
2019-03-22T06:04:44.232Z,57.50
2019-03-22T06:05:46.354Z,53.60
2019-03-22T06:06:44.236Z,57.40
2019-03-22T06:07:44.234Z,61.20
2019-03-22T06:08:44.216Z,58.50
2019-03-22T06:09:44.184Z,57.20
2019-03-22T06:10:44.168Z,54.00
2019-03-22T06:11:44.207Z,56.40
2019-03-22T06:12:44.181Z,56.00
2019-03-22T06:13:44.524Z,55.90
2019-03-22T06:14:44.166Z,58.30
2019-03-22T06:15:44.120Z,56.30
2019-03-22T06:16:44.105Z,55.80
2019-03-22T06:17:51.742Z,58.90
2019-03-22T06:18:45.090Z,58.40
2019-03-22T06:19:44.089Z,56.30
2019-03-22T06:20:44.124Z,55.50
2019-03-22T06:21:44.094Z,55.60
2019-03-22T06:22:44.079Z,56.80
2019-03-22T06:23:44.027Z,59.20
2019-03-22T06:24:44.031Z,58.80
2019-03-22T06:25:44.031Z,54.20
2019-03-22T06:26:44.946Z,55.80
2019-03-22T06:27:44.012Z,55.30
2019-03-22T06:28:43.978Z,57.60
2019-03-22T06:29:53.692Z,56.10
2019-03-22T06:30:44.968Z,58.70
2019-03-22T06:32:45.224Z,55.90
2019-03-22T06:33:44.025Z,55.00
2019-03-22T06:34:43.906Z,56.40
2019-03-22T06:35:43.905Z,55.30
2019-03-22T06:36:43.887Z,56.50
2019-03-22T06:38:45.030Z,55.80
2019-03-22T06:39:44.089Z,58.90
2019-03-22T06:40:44.049Z,55.80
2019-03-22T06:41:44.008Z,55.10
2019-03-22T06:42:44.048Z,57.50
2019-03-22T06:43:44.012Z,61.30
2019-03-22T06:44:43.863Z,54.30
2019-03-22T06:45:43.801Z,55.80
2019-03-22T06:46:43.781Z,55.50
2019-03-22T06:47:43.792Z,56.00
2019-03-22T06:48:43.780Z,60.00
2019-03-22T06:49:43.770Z,62.30
2019-03-22T06:50:43.774Z,61.80
2019-03-22T06:51:43.727Z,61.00
2019-03-22T06:52:43.747Z,64.90
2019-03-22T06:53:43.713Z,60.50
2019-03-22T06:54:43.716Z,61.70
2019-03-22T06:55:43.688Z,56.20
2019-03-22T06:56:43.674Z,53.90
2019-03-22T06:57:43.690Z,56.50
2019-03-22T06:58:43.652Z,56.90
2019-03-22T06:59:43.654Z,55.90
2019-03-22T07:00:43.648Z,57.90
2019-03-22T07:01:43.633Z,58.80
2019-03-22T07:02:43.657Z,55.10
2019-03-22T07:03:43.605Z,61.50
2019-03-22T07:04:43.587Z,60.40
2019-03-22T07:05:43.582Z,66.00
2019-03-22T07:06:43.562Z,65.10
2019-03-22T07:07:43.592Z,66.50
2019-03-22T07:08:43.593Z,61.90
2019-03-22T07:09:43.524Z,55.60
2019-03-22T07:10:43.540Z,52.50
2019-03-22T07:11:43.517Z,57.40
2019-03-22T07:12:43.495Z,53.00
2019-03-22T07:13:43.506Z,52.40
2019-03-22T07:14:43.468Z,51.70
2019-03-22T07:15:43.462Z,63.70
2019-03-22T07:16:43.453Z,59.60
2019-03-22T07:17:43.450Z,54.00
2019-03-22T07:18:43.459Z,53.90
2019-03-22T07:19:43.416Z,52.50
2019-03-22T07:20:43.402Z,51.30
2019-03-22T07:21:43.406Z,54.90
2019-03-22T07:22:43.382Z,51.90
2019-03-22T07:23:43.392Z,56.90
2019-03-22T07:24:43.359Z,57.60
2019-03-22T07:25:43.360Z,56.00
2019-03-22T07:26:43.353Z,57.10
2019-03-22T07:27:43.324Z,57.60
2019-03-22T07:28:43.346Z,55.10
2019-03-22T07:29:43.320Z,56.80
2019-03-22T07:30:43.302Z,53.90
2019-03-22T07:31:43.304Z,59.70
2019-03-22T07:32:43.276Z,62.10
2019-03-22T07:33:43.292Z,63.10
2019-03-22T07:34:43.282Z,59.00
2019-03-22T07:35:43.240Z,62.40
2019-03-22T07:36:43.285Z,62.20
2019-03-22T07:37:43.216Z,56.80
2019-03-22T07:38:43.242Z,75.60
2019-03-22T07:39:43.202Z,62.50
2019-03-22T07:40:43.198Z,59.40
2019-03-22T07:41:43.177Z,55.40
2019-03-22T07:42:43.163Z,53.90
2019-03-22T07:43:43.183Z,56.50
2019-03-22T07:44:43.142Z,58.60
2019-03-22T07:45:43.142Z,53.40
2019-03-22T07:46:43.120Z,58.60
2019-03-22T07:47:43.126Z,59.00
2019-03-22T07:48:43.125Z,57.20
2019-03-22T07:49:43.093Z,57.70
2019-03-22T07:50:43.080Z,64.00
2019-03-22T07:51:43.074Z,56.80
2019-03-22T07:52:43.090Z,60.50
2019-03-22T07:53:43.048Z,52.40
2019-03-22T07:54:43.068Z,55.20
2019-03-22T07:55:43.040Z,51.10
2019-03-22T07:56:43.024Z,51.70
2019-03-22T07:57:43.014Z,55.50
2019-03-22T07:58:42.990Z,52.70
2019-03-22T07:59:42.997Z,53.30
2019-03-22T08:00:42.968Z,51.70
2019-03-22T08:01:42.961Z,48.90
2019-03-22T08:02:42.960Z,50.40
2019-03-22T08:03:42.948Z,49.80
2019-03-22T08:04:42.962Z,49.40
2019-03-22T08:05:50.710Z,50.90
2019-03-22T08:06:43.910Z,51.60
2019-03-22T08:07:42.890Z,49.30
2019-03-22T08:08:42.928Z,49.30
2019-03-22T08:09:42.921Z,50.20
2019-03-22T08:10:42.862Z,50.90
2019-03-22T08:11:42.866Z,48.00
2019-03-22T08:12:42.848Z,52.20
2019-03-22T08:13:42.840Z,51.20
2019-03-22T08:14:42.840Z,51.70
2019-03-22T08:15:42.834Z,50.50
2019-03-22T08:16:42.827Z,50.70
2019-03-22T08:17:42.882Z,49.30
2019-03-22T08:18:42.816Z,50.70
2019-03-22T08:19:42.796Z,48.90
2019-03-22T08:20:42.772Z,49.90
2019-03-22T08:21:42.744Z,49.40
2019-03-22T08:22:42.730Z,53.30
2019-03-22T08:23:42.725Z,51.90
2019-03-22T08:24:42.802Z,50.80
2019-03-22T08:25:43.618Z,51.70
2019-03-22T08:26:42.741Z,52.20
2019-03-22T08:27:42.679Z,54.80
2019-03-22T08:28:42.668Z,51.70
2019-03-22T08:29:42.733Z,51.40
2019-03-22T08:30:43.485Z,55.70
2019-03-22T08:31:42.643Z,48.80
2019-03-22T08:32:42.646Z,51.10
2019-03-22T08:33:42.659Z,48.80
2019-03-22T08:34:42.670Z,50.90
2019-03-22T08:35:42.614Z,52.50
2019-03-22T08:36:42.607Z,50.20
2019-03-22T08:37:52.068Z,53.90
2019-03-22T08:38:43.556Z,47.40
2019-03-22T08:39:42.602Z,49.40
2019-03-22T08:40:42.542Z,51.90
2019-03-22T08:41:42.572Z,51.60
2019-03-22T08:42:42.515Z,54.20
2019-03-22T08:43:42.540Z,52.70
2019-03-22T08:44:42.490Z,53.80
2019-03-22T08:45:42.547Z,55.60
2019-03-22T08:46:44.889Z,51.80
2019-03-22T08:47:42.463Z,53.30
2019-03-22T08:48:42.458Z,53.40
2019-03-22T08:49:42.593Z,54.00
2019-03-22T08:50:42.454Z,50.00
2019-03-22T08:51:42.424Z,52.80
2019-03-22T08:52:42.438Z,53.30
2019-03-22T08:53:54.675Z,53.60
2019-03-22T08:54:43.388Z,55.70
2019-03-22T08:55:42.429Z,51.60
2019-03-22T08:56:42.368Z,54.20
2019-03-22T08:57:42.346Z,54.30
2019-03-22T08:58:42.364Z,52.70
2019-03-22T08:59:42.343Z,53.40
2019-03-22T09:00:56.283Z,56.60
2019-03-22T09:01:43.307Z,51.80
2019-03-22T09:02:42.413Z,53.00
2019-03-22T09:03:42.321Z,56.00
2019-03-22T09:04:42.298Z,59.50
2019-03-22T09:05:42.276Z,52.10
2019-03-22T09:06:42.263Z,55.00
2019-03-22T09:07:42.306Z,57.60
2019-03-22T09:08:42.235Z,56.40
2019-03-22T09:09:42.254Z,52.70
2019-03-22T09:10:42.241Z,49.00
2019-03-22T09:11:42.214Z,53.80
2019-03-22T09:12:42.230Z,55.40
2019-03-22T09:13:42.178Z,53.40
2019-03-22T09:14:42.162Z,58.10
2019-03-22T09:15:42.285Z,55.90
2019-03-22T09:16:42.144Z,51.20
2019-03-22T09:17:42.212Z,55.80
2019-03-22T09:18:42.129Z,52.50
2019-03-22T09:19:42.106Z,52.60
2019-03-22T09:20:42.150Z,53.80
2019-03-22T09:21:42.090Z,55.40
2019-03-22T09:22:42.107Z,54.40
2019-03-22T09:23:42.130Z,57.20
2019-03-22T09:24:42.049Z,54.30
2019-03-22T09:25:42.109Z,56.80
2019-03-22T09:26:47.590Z,50.80
2019-03-22T09:27:43.032Z,51.90
2019-03-22T09:28:42.016Z,55.20
2019-03-22T09:29:42.003Z,56.40
2019-03-22T09:30:42.112Z,57.70
2019-03-22T09:31:41.984Z,54.50
2019-03-22T09:32:41.990Z,55.80
2019-03-22T09:33:41.956Z,55.40
2019-03-22T09:34:41.955Z,54.30
2019-03-22T09:35:41.990Z,55.00
2019-03-22T09:36:41.968Z,55.30
2019-03-22T09:37:41.950Z,56.20
2019-03-22T09:38:41.932Z,53.00
2019-03-22T09:39:41.901Z,52.10
2019-03-22T09:40:41.936Z,54.90
2019-03-22T09:41:41.940Z,55.40
2019-03-22T09:42:41.856Z,53.90
2019-03-22T09:43:41.894Z,57.20
2019-03-22T09:44:44.262Z,54.80
2019-03-22T09:45:41.843Z,55.70
2019-03-22T09:46:41.864Z,54.90
2019-03-22T09:47:41.820Z,56.00
2019-03-22T09:48:41.799Z,57.30
2019-03-22T09:49:41.801Z,65.30
2019-03-22T09:50:41.778Z,53.40
2019-03-22T09:51:41.779Z,60.40
2019-03-22T09:52:41.757Z,54.00
2019-03-22T09:53:41.727Z,57.50
2019-03-22T09:54:41.763Z,58.00
2019-03-22T09:55:41.716Z,56.00
2019-03-22T09:56:46.938Z,55.60
2019-03-22T09:57:42.689Z,53.20
2019-03-22T09:58:41.675Z,60.10
2019-03-22T09:59:41.720Z,59.20
2019-03-22T10:00:41.758Z,57.40
2019-03-22T10:01:41.701Z,60.40
2019-03-22T10:02:41.645Z,56.70
2019-03-22T10:03:42.717Z,55.40
2019-03-22T10:04:41.612Z,57.90
2019-03-22T10:05:41.641Z,61.60
2019-03-22T10:06:41.615Z,62.10
2019-03-22T10:07:41.587Z,56.10
2019-03-22T10:08:41.569Z,60.50
2019-03-22T10:09:41.563Z,59.10
2019-03-22T10:10:41.589Z,56.20
2019-03-22T10:11:41.570Z,55.40
2019-03-22T10:12:41.533Z,54.60
2019-03-22T10:13:41.535Z,53.10
2019-03-22T10:14:41.527Z,55.40
2019-03-22T10:15:41.491Z,53.50
2019-03-22T10:16:41.539Z,54.20
2019-03-22T10:17:41.473Z,55.10
2019-03-22T10:18:41.461Z,51.90
2019-03-22T10:19:42.256Z,54.50
2019-03-22T10:20:41.442Z,55.00
2019-03-22T10:21:41.505Z,54.70
2019-03-22T10:22:41.422Z,56.10
2019-03-22T10:23:41.402Z,55.60
2019-03-22T10:24:41.406Z,59.70
2019-03-22T10:25:41.395Z,56.60
2019-03-22T10:26:41.415Z,55.80
2019-03-22T10:27:41.401Z,62.40
2019-03-22T10:28:41.356Z,61.60
2019-03-22T10:29:41.332Z,56.50
2019-03-22T10:30:41.359Z,56.90
2019-03-22T10:31:41.353Z,55.60
2019-03-22T10:32:41.484Z,58.00
2019-03-22T10:33:41.302Z,56.70
2019-03-22T10:34:41.427Z,55.00
2019-03-22T10:35:41.276Z,55.70
2019-03-22T10:36:41.322Z,54.10
2019-03-22T10:37:49.582Z,56.70
2019-03-22T10:38:41.264Z,53.40
2019-03-22T10:39:41.228Z,51.60
2019-03-22T10:40:41.216Z,53.80
2019-03-22T10:41:41.294Z,55.40
2019-03-22T10:42:41.225Z,54.30
2019-03-22T10:43:41.198Z,57.90
2019-03-22T10:44:41.210Z,58.80
2019-03-22T10:45:41.201Z,56.30
2019-03-22T10:46:41.151Z,57.60
2019-03-22T10:47:41.159Z,55.30
2019-03-22T10:48:41.157Z,58.90
2019-03-22T10:49:42.092Z,57.70
2019-03-22T10:50:41.120Z,56.20
2019-03-22T10:51:41.177Z,57.00
2019-03-22T10:52:41.110Z,59.90
2019-03-22T10:53:41.193Z,57.50
2019-03-22T10:54:41.093Z,57.20
2019-03-22T10:55:41.059Z,57.50
2019-03-22T10:56:41.043Z,57.80
2019-03-22T10:57:41.189Z,58.20
2019-03-22T10:58:41.048Z,58.30
2019-03-22T10:59:41.012Z,58.00
2019-03-22T11:00:41.003Z,54.70
2019-03-22T11:01:48.589Z,57.30
2019-03-22T11:02:41.992Z,56.20
2019-03-22T11:03:41.014Z,59.20
2019-03-22T11:04:40.974Z,54.90
2019-03-22T11:05:40.948Z,56.50
2019-03-22T11:06:40.936Z,58.20
2019-03-22T11:07:40.941Z,54.80
2019-03-22T11:08:40.914Z,57.30
2019-03-22T11:09:40.906Z,53.00
2019-03-22T11:10:40.897Z,57.50
2019-03-22T11:11:40.876Z,61.40
2019-03-22T11:12:40.905Z,55.30
2019-03-22T11:13:40.891Z,55.40
2019-03-22T11:14:40.841Z,58.00
2019-03-22T11:15:48.168Z,54.70
2019-03-22T11:16:41.835Z,56.70
2019-03-22T11:17:40.840Z,62.80
2019-03-22T11:18:40.812Z,52.60
2019-03-22T11:19:40.793Z,53.10
2019-03-22T11:20:40.782Z,56.30
2019-03-22T11:21:40.775Z,57.20
2019-03-22T11:22:40.792Z,58.20
2019-03-22T11:23:40.753Z,56.60
2019-03-22T11:24:40.731Z,56.60
2019-03-22T11:25:40.733Z,56.50
2019-03-22T11:26:40.715Z,54.70
2019-03-22T11:27:40.738Z,53.70
2019-03-22T11:28:40.719Z,56.70
2019-03-22T11:29:40.694Z,52.50
2019-03-22T11:30:40.663Z,52.70
2019-03-22T11:31:40.658Z,52.80
2019-03-22T11:32:40.645Z,50.90
2019-03-22T11:33:40.661Z,50.30
2019-03-22T11:34:40.628Z,54.20
2019-03-22T11:35:40.610Z,59.10
2019-03-22T11:36:40.610Z,53.10
2019-03-22T11:37:40.589Z,51.20
2019-03-22T11:38:40.609Z,51.90
2019-03-22T11:39:40.570Z,49.70
2019-03-22T11:40:40.571Z,50.40
2019-03-22T11:41:40.561Z,50.70
2019-03-22T11:42:40.540Z,51.50
2019-03-22T11:43:40.557Z,50.40
2019-03-22T11:44:40.531Z,52.50
2019-03-22T11:45:40.510Z,50.80
2019-03-22T11:46:40.505Z,48.30
2019-03-22T11:47:40.486Z,48.60
2019-03-22T11:48:40.525Z,48.90
2019-03-22T11:49:40.476Z,45.50
2019-03-22T11:50:40.475Z,48.60
2019-03-22T11:51:40.441Z,46.00
2019-03-22T11:52:40.433Z,48.30
2019-03-22T11:53:40.445Z,45.40
2019-03-22T11:54:40.407Z,49.50
2019-03-22T11:55:40.405Z,47.20
2019-03-22T11:56:40.383Z,45.30
2019-03-22T11:57:40.383Z,46.30
2019-03-22T11:58:40.382Z,44.00
2019-03-22T11:59:40.348Z,44.00
2019-03-22T12:00:40.345Z,43.60
2019-03-22T12:01:40.344Z,47.40
2019-03-22T12:02:40.319Z,47.40
2019-03-22T12:03:40.326Z,47.20
2019-03-22T12:04:40.317Z,45.80
2019-03-22T12:05:40.820Z,47.00
2019-03-22T12:06:40.278Z,44.90
2019-03-22T12:07:40.266Z,44.80
2019-03-22T12:08:40.287Z,45.80
2019-03-22T12:09:40.247Z,45.90
2019-03-22T12:10:40.238Z,46.10
2019-03-22T12:11:42.037Z,48.80
2019-03-22T12:12:40.213Z,48.00
2019-03-22T12:13:40.229Z,44.70
2019-03-22T12:14:40.189Z,49.90
2019-03-22T12:15:40.186Z,44.00
2019-03-22T12:16:40.167Z,45.20
2019-03-22T12:17:40.181Z,45.00
2019-03-22T12:18:40.163Z,43.60
2019-03-22T12:19:40.132Z,46.10
2019-03-22T12:20:40.129Z,53.20
2019-03-22T12:21:40.129Z,44.40
2019-03-22T12:22:40.103Z,50.20
2019-03-22T12:23:40.130Z,44.20
2019-03-22T12:24:40.116Z,45.80
2019-03-22T12:25:40.071Z,45.00
2019-03-22T12:26:40.061Z,44.20
2019-03-22T12:27:40.060Z,44.90
2019-03-22T12:28:40.039Z,45.00
2019-03-22T12:29:40.042Z,47.60
2019-03-22T12:30:40.015Z,43.50
2019-03-22T12:31:40.005Z,41.20
2019-03-22T12:32:39.996Z,41.20
2019-03-22T12:33:39.981Z,41.20
2019-03-22T12:34:40.009Z,41.70
2019-03-22T12:35:39.966Z,42.40
2019-03-22T12:36:39.952Z,43.30
2019-03-22T12:37:39.935Z,43.20
2019-03-22T12:38:39.934Z,40.90
2019-03-22T12:39:41.811Z,42.30
2019-03-22T12:40:39.909Z,41.70
2019-03-22T12:41:39.892Z,40.10
2019-03-22T12:42:39.886Z,43.30
2019-03-22T12:43:39.877Z,40.80
2019-03-22T12:44:39.879Z,43.50
2019-03-22T12:45:39.846Z,42.10
2019-03-22T12:46:39.849Z,41.80
2019-03-22T12:47:39.825Z,43.30
2019-03-22T12:48:39.819Z,43.40
2019-03-22T12:49:39.829Z,43.50
2019-03-22T12:50:39.819Z,43.30
2019-03-22T12:51:39.819Z,45.00
2019-03-22T12:52:39.773Z,46.30
2019-03-22T12:53:39.788Z,42.30
2019-03-22T12:54:39.779Z,40.20
2019-03-22T12:55:39.740Z,43.40
2019-03-22T12:56:39.725Z,42.80
2019-03-22T12:57:39.725Z,43.50
2019-03-22T12:58:39.764Z,41.50
2019-03-22T12:59:39.723Z,43.60
2019-03-22T13:00:39.693Z,45.00
2019-03-22T13:01:39.709Z,43.80
2019-03-22T13:02:42.438Z,42.30
2019-03-22T13:03:39.667Z,42.10
2019-03-22T13:04:39.665Z,44.20
2019-03-22T13:05:39.634Z,45.40
2019-03-22T13:06:39.625Z,43.30
2019-03-22T13:07:39.619Z,51.60
2019-03-22T13:08:39.598Z,48.10
2019-03-22T13:09:39.613Z,43.40
2019-03-22T13:10:39.573Z,43.30
2019-03-22T13:11:39.576Z,56.20
2019-03-22T13:12:39.561Z,44.80
2019-03-22T13:13:39.550Z,46.00
2019-03-22T13:14:39.580Z,45.70
2019-03-22T13:15:39.536Z,43.60
2019-03-22T13:16:39.520Z,44.90
2019-03-22T13:17:39.511Z,46.30
2019-03-22T13:18:49.601Z,50.20
2019-03-22T13:19:40.498Z,46.90
2019-03-22T13:20:39.481Z,42.00
2019-03-22T13:21:39.455Z,47.60
2019-03-22T13:22:39.455Z,42.30